sensor_id;sensor_type;location;lat;lon;timestamp;P1;durP1;ratioP1;P2;durP2;ratioP2
4309;SDS011;2168;53.576;9.980;2022-08-20T00:01:20;8.07;;;7.27;;
4309;SDS011;2168;53.576;9.980;2022-08-20T00:03:45;6.90;;;6.20;;
4309;SDS011;2168;53.576;9.980;2022-08-20T00:06:12;8.17;;;6.50;;
4309;SDS011;2168;53.576;9.980;2022-08-20T00:08:38;6.67;;;6.03;;
4309;SDS011;2168;53.576;9.980;2022-08-20T00:11:04;8.87;;;5.63;;
4309;SDS011;2168;53.576;9.980;2022-08-20T00:13:32;10.60;;;5.70;;
4309;SDS011;2168;53.576;9.980;2022-08-20T00:15:58;7.10;;;5.83;;
4309;SDS011;2168;53.576;9.980;2022-08-20T00:18:23;6.00;;;4.70;;
4309;SDS011;2168;53.576;9.980;2022-08-20T00:20:50;4.40;;;4.00;;
4309;SDS011;2168;53.576;9.980;2022-08-20T00:23:16;6.07;;;4.67;;
4309;SDS011;2168;53.576;9.980;2022-08-20T00:25:41;6.90;;;4.13;;
4309;SDS011;2168;53.576;9.980;2022-08-20T00:28:07;4.80;;;4.40;;
4309;SDS011;2168;53.576;9.980;2022-08-20T00:30:34;5.00;;;4.60;;
4309;SDS011;2168;53.576;9.980;2022-08-20T00:33:01;5.17;;;4.50;;
4309;SDS011;2168;53.576;9.980;2022-08-20T00:35:28;5.00;;;4.53;;
4309;SDS011;2168;53.576;9.980;2022-08-20T00:37:53;6.07;;;4.70;;
4309;SDS011;2168;53.576;9.980;2022-08-20T00:40:20;5.23;;;4.83;;
4309;SDS011;2168;53.576;9.980;2022-08-20T00:42:47;5.37;;;4.87;;
4309;SDS011;2168;53.576;9.980;2022-08-20T00:45:14;5.33;;;4.53;;
4309;SDS011;2168;53.576;9.980;2022-08-20T00:47:39;4.77;;;4.37;;
4309;SDS011;2168;53.576;9.980;2022-08-20T00:50:07;5.90;;;4.80;;
4309;SDS011;2168;53.576;9.980;2022-08-20T00:52:33;6.60;;;5.53;;
4309;SDS011;2168;53.576;9.980;2022-08-20T00:54:59;5.87;;;5.27;;
4309;SDS011;2168;53.576;9.980;2022-08-20T01:00:30;5.33;;;4.93;;
4309;SDS011;2168;53.576;9.980;2022-08-20T01:02:56;6.63;;;4.73;;
4309;SDS011;2168;53.576;9.980;2022-08-20T01:05:23;5.50;;;5.10;;
4309;SDS011;2168;53.576;9.980;2022-08-20T01:07:51;9.87;;;5.97;;
4309;SDS011;2168;53.576;9.980;2022-08-20T01:10:19;5.13;;;4.63;;
4309;SDS011;2168;53.576;9.980;2022-08-20T01:12:46;6.93;;;6.23;;
4309;SDS011;2168;53.576;9.980;2022-08-20T01:15:14;7.50;;;6.33;;
4309;SDS011;2168;53.576;9.980;2022-08-20T01:17:42;5.83;;;5.23;;
4309;SDS011;2168;53.576;9.980;2022-08-20T01:20:11;6.60;;;5.10;;
4309;SDS011;2168;53.576;9.980;2022-08-20T01:22:40;7.70;;;6.90;;
4309;SDS011;2168;53.576;9.980;2022-08-20T01:25:29;7.57;;;6.63;;
4309;SDS011;2168;53.576;9.980;2022-08-20T01:27:58;7.30;;;6.27;;
4309;SDS011;2168;53.576;9.980;2022-08-20T01:30:24;7.20;;;6.53;;
4309;SDS011;2168;53.576;9.980;2022-08-20T01:32:50;8.53;;;5.60;;
4309;SDS011;2168;53.576;9.980;2022-08-20T01:35:19;6.67;;;5.90;;
4309;SDS011;2168;53.576;9.980;2022-08-20T01:37:45;6.50;;;5.60;;
4309;SDS011;2168;53.576;9.980;2022-08-20T01:40:10;6.03;;;5.47;;
4309;SDS011;2168;53.576;9.980;2022-08-20T01:42:39;6.00;;;5.23;;
4309;SDS011;2168;53.576;9.980;2022-08-20T01:45:08;6.43;;;5.17;;
4309;SDS011;2168;53.576;9.980;2022-08-20T01:47:33;5.77;;;5.30;;
4309;SDS011;2168;53.576;9.980;2022-08-20T01:50:00;6.57;;;5.37;;
4309;SDS011;2168;53.576;9.980;2022-08-20T01:52:29;5.87;;;5.20;;
4309;SDS011;2168;53.576;9.980;2022-08-20T01:54:55;5.67;;;5.17;;
4309;SDS011;2168;53.576;9.980;2022-08-20T01:57:24;5.80;;;4.60;;
4309;SDS011;2168;53.576;9.980;2022-08-20T01:59:53;7.53;;;5.43;;
4309;SDS011;2168;53.576;9.980;2022-08-20T02:02:19;5.67;;;5.10;;
4309;SDS011;2168;53.576;9.980;2022-08-20T02:04:44;6.97;;;5.20;;
4309;SDS011;2168;53.576;9.980;2022-08-20T02:07:18;7.70;;;5.63;;
4309;SDS011;2168;53.576;9.980;2022-08-20T02:09:44;7.90;;;5.40;;
4309;SDS011;2168;53.576;9.980;2022-08-20T02:12:09;5.67;;;5.00;;
4309;SDS011;2168;53.576;9.980;2022-08-20T02:14:38;6.27;;;5.50;;
4309;SDS011;2168;53.576;9.980;2022-08-20T02:17:04;5.90;;;5.40;;
4309;SDS011;2168;53.576;9.980;2022-08-20T02:19:38;5.20;;;4.73;;
4309;SDS011;2168;53.576;9.980;2022-08-20T02:24:55;4.83;;;4.40;;
4309;SDS011;2168;53.576;9.980;2022-08-20T02:27:20;5.20;;;4.70;;
4309;SDS011;2168;53.576;9.980;2022-08-20T02:29:47;5.93;;;4.63;;
4309;SDS011;2168;53.576;9.980;2022-08-20T02:32:13;5.83;;;5.33;;
4309;SDS011;2168;53.576;9.980;2022-08-20T02:34:38;6.10;;;5.20;;
4309;SDS011;2168;53.576;9.980;2022-08-20T02:37:04;13.33;;;7.50;;
4309;SDS011;2168;53.576;9.980;2022-08-20T02:39:30;9.53;;;7.37;;
4309;SDS011;2168;53.576;9.980;2022-08-20T02:41:55;15.60;;;11.30;;
4309;SDS011;2168;53.576;9.980;2022-08-20T02:44:20;10.57;;;9.47;;
4309;SDS011;2168;53.576;9.980;2022-08-20T02:46:46;10.40;;;8.57;;
4309;SDS011;2168;53.576;9.980;2022-08-20T02:49:14;20.10;;;13.13;;
4309;SDS011;2168;53.576;9.980;2022-08-20T02:51:41;17.87;;;11.57;;
4309;SDS011;2168;53.576;9.980;2022-08-20T02:54:06;19.80;;;10.57;;
4309;SDS011;2168;53.576;9.980;2022-08-20T02:56:31;13.60;;;11.33;;
4309;SDS011;2168;53.576;9.980;2022-08-20T02:58:56;17.73;;;10.83;;
4309;SDS011;2168;53.576;9.980;2022-08-20T03:01:22;15.87;;;11.50;;
4309;SDS011;2168;53.576;9.980;2022-08-20T03:03:47;23.03;;;13.90;;
4309;SDS011;2168;53.576;9.980;2022-08-20T03:06:12;18.20;;;13.37;;
4309;SDS011;2168;53.576;9.980;2022-08-20T03:08:38;20.30;;;14.20;;
4309;SDS011;2168;53.576;9.980;2022-08-20T03:11:04;23.00;;;16.43;;
4309;SDS011;2168;53.576;9.980;2022-08-20T03:13:30;21.83;;;15.80;;
4309;SDS011;2168;53.576;9.980;2022-08-20T03:15:56;20.73;;;14.83;;
4309;SDS011;2168;53.576;9.980;2022-08-20T03:18:23;22.67;;;15.37;;
4309;SDS011;2168;53.576;9.980;2022-08-20T03:20:48;25.70;;;17.30;;
4309;SDS011;2168;53.576;9.980;2022-08-20T03:23:14;24.60;;;16.43;;
4309;SDS011;2168;53.576;9.980;2022-08-20T03:25:39;18.73;;;14.17;;
4309;SDS011;2168;53.576;9.980;2022-08-20T03:28:05;24.63;;;15.40;;
4309;SDS011;2168;53.576;9.980;2022-08-20T03:30:31;20.70;;;14.90;;
4309;SDS011;2168;53.576;9.980;2022-08-20T03:32:57;29.30;;;16.70;;
4309;SDS011;2168;53.576;9.980;2022-08-20T03:35:23;20.23;;;14.87;;
4309;SDS011;2168;53.576;9.980;2022-08-20T03:37:49;20.57;;;15.70;;
4309;SDS011;2168;53.576;9.980;2022-08-20T03:40:17;20.07;;;14.00;;
4309;SDS011;2168;53.576;9.980;2022-08-20T03:42:42;16.40;;;13.10;;
4309;SDS011;2168;53.576;9.980;2022-08-20T03:45:09;21.30;;;15.40;;
4309;SDS011;2168;53.576;9.980;2022-08-20T03:47:34;16.40;;;12.70;;
4309;SDS011;2168;53.576;9.980;2022-08-20T03:50:00;17.50;;;11.77;;
4309;SDS011;2168;53.576;9.980;2022-08-20T03:52:25;23.63;;;14.37;;
4309;SDS011;2168;53.576;9.980;2022-08-20T03:54:52;18.73;;;12.00;;
4309;SDS011;2168;53.576;9.980;2022-08-20T03:57:17;18.20;;;10.60;;
4309;SDS011;2168;53.576;9.980;2022-08-20T03:59:43;15.57;;;11.87;;
4309;SDS011;2168;53.576;9.980;2022-08-20T04:02:09;16.00;;;11.20;;
4309;SDS011;2168;53.576;9.980;2022-08-20T04:04:35;14.43;;;12.63;;
4309;SDS011;2168;53.576;9.980;2022-08-20T04:07:07;20.60;;;12.47;;
4309;SDS011;2168;53.576;9.980;2022-08-20T04:09:32;16.20;;;11.63;;
4309;SDS011;2168;53.576;9.980;2022-08-20T04:11:58;16.90;;;13.60;;
4309;SDS011;2168;53.576;9.980;2022-08-20T04:14:24;22.47;;;11.73;;
4309;SDS011;2168;53.576;9.980;2022-08-20T04:16:49;19.40;;;11.73;;
4309;SDS011;2168;53.576;9.980;2022-08-20T04:19:14;16.90;;;11.83;;
4309;SDS011;2168;53.576;9.980;2022-08-20T04:21:40;14.73;;;11.30;;
4309;SDS011;2168;53.576;9.980;2022-08-20T04:24:05;15.53;;;10.73;;
4309;SDS011;2168;53.576;9.980;2022-08-20T04:26:30;14.10;;;11.03;;
4309;SDS011;2168;53.576;9.980;2022-08-20T04:28:56;13.43;;;10.83;;
4309;SDS011;2168;53.576;9.980;2022-08-20T04:31:21;14.77;;;12.37;;
4309;SDS011;2168;53.576;9.980;2022-08-20T04:33:56;15.33;;;11.07;;
4309;SDS011;2168;53.576;9.980;2022-08-20T04:36:21;13.80;;;11.20;;
4309;SDS011;2168;53.576;9.980;2022-08-20T04:38:47;13.47;;;11.10;;
4309;SDS011;2168;53.576;9.980;2022-08-20T04:41:12;15.20;;;11.87;;
4309;SDS011;2168;53.576;9.980;2022-08-20T04:43:37;18.40;;;11.10;;
4309;SDS011;2168;53.576;9.980;2022-08-20T04:46:04;20.17;;;12.63;;
4309;SDS011;2168;53.576;9.980;2022-08-20T04:48:30;14.53;;;11.77;;
4309;SDS011;2168;53.576;9.980;2022-08-20T04:50:56;18.37;;;12.97;;
4309;SDS011;2168;53.576;9.980;2022-08-20T04:53:23;17.90;;;12.67;;
4309;SDS011;2168;53.576;9.980;2022-08-20T04:55:50;17.70;;;12.63;;
4309;SDS011;2168;53.576;9.980;2022-08-20T04:58:17;18.40;;;12.27;;
4309;SDS011;2168;53.576;9.980;2022-08-20T05:00:44;15.53;;;12.50;;
4309;SDS011;2168;53.576;9.980;2022-08-20T05:03:10;17.13;;;13.00;;
4309;SDS011;2168;53.576;9.980;2022-08-20T05:05:36;17.93;;;13.50;;
4309;SDS011;2168;53.576;9.980;2022-08-20T05:08:02;15.40;;;12.50;;
4309;SDS011;2168;53.576;9.980;2022-08-20T05:10:27;18.90;;;13.73;;
4309;SDS011;2168;53.576;9.980;2022-08-20T05:12:52;15.77;;;12.57;;
4309;SDS011;2168;53.576;9.980;2022-08-20T05:15:18;14.10;;;12.33;;
4309;SDS011;2168;53.576;9.980;2022-08-20T05:17:43;18.23;;;12.70;;
4309;SDS011;2168;53.576;9.980;2022-08-20T05:20:09;20.30;;;12.47;;
4309;SDS011;2168;53.576;9.980;2022-08-20T05:22:35;16.63;;;12.53;;
4309;SDS011;2168;53.576;9.980;2022-08-20T05:25:01;15.37;;;11.33;;
4309;SDS011;2168;53.576;9.980;2022-08-20T05:27:27;20.70;;;13.60;;
4309;SDS011;2168;53.576;9.980;2022-08-20T05:29:53;17.27;;;13.00;;
4309;SDS011;2168;53.576;9.980;2022-08-20T05:32:20;14.20;;;12.47;;
4309;SDS011;2168;53.576;9.980;2022-08-20T05:34:45;18.97;;;13.30;;
4309;SDS011;2168;53.576;9.980;2022-08-20T05:37:10;18.20;;;13.33;;
4309;SDS011;2168;53.576;9.980;2022-08-20T05:39:36;16.80;;;13.27;;
4309;SDS011;2168;53.576;9.980;2022-08-20T05:42:01;18.60;;;13.67;;
4309;SDS011;2168;53.576;9.980;2022-08-20T05:44:26;13.20;;;10.73;;
4309;SDS011;2168;53.576;9.980;2022-08-20T05:46:51;13.93;;;11.57;;
4309;SDS011;2168;53.576;9.980;2022-08-20T05:49:18;17.47;;;12.20;;
4309;SDS011;2168;53.576;9.980;2022-08-20T05:51:44;15.53;;;12.30;;
4309;SDS011;2168;53.576;9.980;2022-08-20T05:54:09;20.63;;;13.37;;
4309;SDS011;2168;53.576;9.980;2022-08-20T05:56:35;13.83;;;12.23;;
4309;SDS011;2168;53.576;9.980;2022-08-20T05:59:01;17.43;;;11.83;;
4309;SDS011;2168;53.576;9.980;2022-08-20T06:01:31;19.87;;;12.80;;
4309;SDS011;2168;53.576;9.980;2022-08-20T06:03:56;14.53;;;12.00;;
4309;SDS011;2168;53.576;9.980;2022-08-20T06:06:41;21.57;;;12.63;;
4309;SDS011;2168;53.576;9.980;2022-08-20T06:09:06;16.80;;;12.90;;
4309;SDS011;2168;53.576;9.980;2022-08-20T06:11:31;18.43;;;13.60;;
4309;SDS011;2168;53.576;9.980;2022-08-20T06:13:57;16.33;;;11.47;;
4309;SDS011;2168;53.576;9.980;2022-08-20T06:16:22;12.80;;;10.73;;
4309;SDS011;2168;53.576;9.980;2022-08-20T06:18:47;12.50;;;10.90;;
4309;SDS011;2168;53.576;9.980;2022-08-20T06:21:13;15.57;;;11.00;;
4309;SDS011;2168;53.576;9.980;2022-08-20T06:26:13;16.13;;;11.63;;
4309;SDS011;2168;53.576;9.980;2022-08-20T06:28:38;14.70;;;12.20;;
4309;SDS011;2168;53.576;9.980;2022-08-20T06:31:03;10.80;;;9.27;;
4309;SDS011;2168;53.576;9.980;2022-08-20T06:33:28;14.00;;;11.90;;
4309;SDS011;2168;53.576;9.980;2022-08-20T06:35:54;11.77;;;10.30;;
4309;SDS011;2168;53.576;9.980;2022-08-20T06:38:19;15.57;;;12.47;;
4309;SDS011;2168;53.576;9.980;2022-08-20T06:40:45;13.93;;;11.77;;
4309;SDS011;2168;53.576;9.980;2022-08-20T06:43:10;14.73;;;11.40;;
4309;SDS011;2168;53.576;9.980;2022-08-20T06:45:36;12.93;;;10.33;;
4309;SDS011;2168;53.576;9.980;2022-08-20T06:48:04;16.47;;;11.50;;
4309;SDS011;2168;53.576;9.980;2022-08-20T06:50:31;20.23;;;10.60;;
4309;SDS011;2168;53.576;9.980;2022-08-20T06:52:57;14.60;;;10.20;;
4309;SDS011;2168;53.576;9.980;2022-08-20T06:55:22;12.40;;;9.60;;
4309;SDS011;2168;53.576;9.980;2022-08-20T06:57:57;13.93;;;10.67;;
4309;SDS011;2168;53.576;9.980;2022-08-20T07:00:23;15.20;;;11.00;;
4309;SDS011;2168;53.576;9.980;2022-08-20T07:02:49;10.87;;;9.77;;
4309;SDS011;2168;53.576;9.980;2022-08-20T07:05:14;10.80;;;8.80;;
4309;SDS011;2168;53.576;9.980;2022-08-20T07:07:43;12.00;;;9.47;;
4309;SDS011;2168;53.576;9.980;2022-08-20T07:10:09;13.80;;;9.30;;
4309;SDS011;2168;53.576;9.980;2022-08-20T07:12:35;10.87;;;7.77;;
4309;SDS011;2168;53.576;9.980;2022-08-20T07:15:03;10.00;;;7.50;;
4309;SDS011;2168;53.576;9.980;2022-08-20T07:17:29;10.37;;;7.50;;
4309;SDS011;2168;53.576;9.980;2022-08-20T07:19:54;9.77;;;7.37;;
4309;SDS011;2168;53.576;9.980;2022-08-20T07:22:19;11.00;;;6.90;;
4309;SDS011;2168;53.576;9.980;2022-08-20T07:24:45;11.80;;;6.80;;
4309;SDS011;2168;53.576;9.980;2022-08-20T07:27:10;12.13;;;6.93;;
4309;SDS011;2168;53.576;9.980;2022-08-20T07:29:35;9.80;;;6.73;;
4309;SDS011;2168;53.576;9.980;2022-08-20T07:32:19;8.80;;;5.20;;
4309;SDS011;2168;53.576;9.980;2022-08-20T07:35:01;11.83;;;6.00;;
4309;SDS011;2168;53.576;9.980;2022-08-20T07:37:27;9.20;;;5.13;;
4309;SDS011;2168;53.576;9.980;2022-08-20T07:39:52;7.23;;;4.97;;
4309;SDS011;2168;53.576;9.980;2022-08-20T07:42:18;9.03;;;5.70;;
4309;SDS011;2168;53.576;9.980;2022-08-20T07:44:43;7.00;;;4.77;;
4309;SDS011;2168;53.576;9.980;2022-08-20T07:47:08;6.60;;;4.60;;
4309;SDS011;2168;53.576;9.980;2022-08-20T07:49:40;6.87;;;4.70;;
4309;SDS011;2168;53.576;9.980;2022-08-20T07:52:05;9.67;;;4.50;;
4309;SDS011;2168;53.576;9.980;2022-08-20T07:54:30;9.53;;;5.00;;
4309;SDS011;2168;53.576;9.980;2022-08-20T07:56:59;5.70;;;5.00;;
4309;SDS011;2168;53.576;9.980;2022-08-20T07:59:24;7.30;;;5.23;;
4309;SDS011;2168;53.576;9.980;2022-08-20T08:01:49;5.10;;;4.60;;
4309;SDS011;2168;53.576;9.980;2022-08-20T08:04:15;7.50;;;4.17;;
4309;SDS011;2168;53.576;9.980;2022-08-20T08:06:40;5.77;;;5.17;;
4309;SDS011;2168;53.576;9.980;2022-08-20T08:09:10;6.83;;;4.67;;
4309;SDS011;2168;53.576;9.980;2022-08-20T08:11:38;6.60;;;3.97;;
4309;SDS011;2168;53.576;9.980;2022-08-20T08:14:05;7.10;;;4.80;;
4309;SDS011;2168;53.576;9.980;2022-08-20T08:16:31;10.53;;;4.87;;
4309;SDS011;2168;53.576;9.980;2022-08-20T08:18:56;6.93;;;4.93;;
4309;SDS011;2168;53.576;9.980;2022-08-20T08:21:23;10.07;;;3.87;;
4309;SDS011;2168;53.576;9.980;2022-08-20T08:23:49;5.47;;;4.00;;
4309;SDS011;2168;53.576;9.980;2022-08-20T08:26:15;7.13;;;3.70;;
4309;SDS011;2168;53.576;9.980;2022-08-20T08:28:41;4.00;;;3.43;;
4309;SDS011;2168;53.576;9.980;2022-08-20T08:31:08;4.03;;;3.60;;
4309;SDS011;2168;53.576;9.980;2022-08-20T08:33:33;11.23;;;4.20;;
4309;SDS011;2168;53.576;9.980;2022-08-20T08:38:27;3.40;;;2.60;;
4309;SDS011;2168;53.576;9.980;2022-08-20T08:40:54;5.13;;;3.70;;
4309;SDS011;2168;53.576;9.980;2022-08-20T08:43:22;5.07;;;2.50;;
4309;SDS011;2168;53.576;9.980;2022-08-20T08:45:59;4.10;;;2.30;;
4309;SDS011;2168;53.576;9.980;2022-08-20T08:48:28;5.20;;;3.10;;
4309;SDS011;2168;53.576;9.980;2022-08-20T08:50:55;4.83;;;2.47;;
4309;SDS011;2168;53.576;9.980;2022-08-20T08:53:26;5.50;;;3.23;;
4309;SDS011;2168;53.576;9.980;2022-08-20T08:55:53;4.30;;;2.67;;
4309;SDS011;2168;53.576;9.980;2022-08-20T08:58:18;3.67;;;2.43;;
4309;SDS011;2168;53.576;9.980;2022-08-20T09:00:43;3.10;;;2.73;;
4309;SDS011;2168;53.576;9.980;2022-08-20T09:03:18;7.13;;;3.57;;
4309;SDS011;2168;53.576;9.980;2022-08-20T09:08:13;6.40;;;2.90;;
4309;SDS011;2168;53.576;9.980;2022-08-20T09:10:39;6.63;;;2.60;;
4309;SDS011;2168;53.576;9.980;2022-08-20T09:13:05;3.30;;;2.87;;
4309;SDS011;2168;53.576;9.980;2022-08-20T09:15:30;6.30;;;3.40;;
4309;SDS011;2168;53.576;9.980;2022-08-20T09:17:56;4.70;;;3.20;;
4309;SDS011;2168;53.576;9.980;2022-08-20T09:20:21;12.80;;;3.53;;
4309;SDS011;2168;53.576;9.980;2022-08-20T09:22:46;6.10;;;2.87;;
4309;SDS011;2168;53.576;9.980;2022-08-20T09:25:22;5.94;;;2.63;;
4309;SDS011;2168;53.576;9.980;2022-08-20T09:27:52;7.33;;;2.80;;
4309;SDS011;2168;53.576;9.980;2022-08-20T09:30:22;7.23;;;3.67;;
4309;SDS011;2168;53.576;9.980;2022-08-20T09:32:48;6.87;;;3.50;;
4309;SDS011;2168;53.576;9.980;2022-08-20T09:35:14;7.40;;;3.43;;
4309;SDS011;2168;53.576;9.980;2022-08-20T09:37:39;9.10;;;3.50;;
4309;SDS011;2168;53.576;9.980;2022-08-20T09:40:05;6.37;;;2.60;;
4309;SDS011;2168;53.576;9.980;2022-08-20T09:42:32;12.73;;;4.90;;
4309;SDS011;2168;53.576;9.980;2022-08-20T09:44:58;8.17;;;3.03;;
4309;SDS011;2168;53.576;9.980;2022-08-20T09:47:23;5.43;;;2.97;;
4309;SDS011;2168;53.576;9.980;2022-08-20T09:49:49;7.90;;;2.83;;
4309;SDS011;2168;53.576;9.980;2022-08-20T09:54:53;8.70;;;3.90;;
4309;SDS011;2168;53.576;9.980;2022-08-20T09:57:24;17.03;;;3.50;;
4309;SDS011;2168;53.576;9.980;2022-08-20T09:59:52;11.00;;;3.10;;
4309;SDS011;2168;53.576;9.980;2022-08-20T10:02:19;11.50;;;3.83;;
4309;SDS011;2168;53.576;9.980;2022-08-20T10:04:45;10.93;;;3.27;;
4309;SDS011;2168;53.576;9.980;2022-08-20T10:07:31;10.07;;;3.33;;
4309;SDS011;2168;53.576;9.980;2022-08-20T10:09:58;6.50;;;3.00;;
4309;SDS011;2168;53.576;9.980;2022-08-20T10:12:24;10.93;;;2.87;;
4309;SDS011;2168;53.576;9.980;2022-08-20T10:14:51;9.57;;;3.13;;
4309;SDS011;2168;53.576;9.980;2022-08-20T10:17:21;11.80;;;3.20;;
4309;SDS011;2168;53.576;9.980;2022-08-20T10:19:46;9.17;;;3.40;;
4309;SDS011;2168;53.576;9.980;2022-08-20T10:22:11;11.47;;;3.30;;
4309;SDS011;2168;53.576;9.980;2022-08-20T10:24:37;11.53;;;3.80;;
4309;SDS011;2168;53.576;9.980;2022-08-20T10:27:02;8.43;;;3.67;;
4309;SDS011;2168;53.576;9.980;2022-08-20T10:29:29;5.50;;;3.40;;
4309;SDS011;2168;53.576;9.980;2022-08-20T10:31:55;6.87;;;2.57;;
4309;SDS011;2168;53.576;9.980;2022-08-20T10:34:24;11.07;;;3.27;;
4309;SDS011;2168;53.576;9.980;2022-08-20T10:36:49;8.93;;;2.93;;
4309;SDS011;2168;53.576;9.980;2022-08-20T10:39:14;7.30;;;2.90;;
4309;SDS011;2168;53.576;9.980;2022-08-20T10:41:39;8.33;;;3.07;;
4309;SDS011;2168;53.576;9.980;2022-08-20T10:44:05;7.20;;;2.83;;
4309;SDS011;2168;53.576;9.980;2022-08-20T10:46:30;4.63;;;2.47;;
4309;SDS011;2168;53.576;9.980;2022-08-20T10:48:56;6.33;;;3.40;;
4309;SDS011;2168;53.576;9.980;2022-08-20T10:51:21;9.03;;;3.30;;
4309;SDS011;2168;53.576;9.980;2022-08-20T10:53:46;9.40;;;3.30;;
4309;SDS011;2168;53.576;9.980;2022-08-20T10:56:13;6.03;;;2.60;;
4309;SDS011;2168;53.576;9.980;2022-08-20T10:58:38;9.63;;;3.13;;
4309;SDS011;2168;53.576;9.980;2022-08-20T11:01:03;6.63;;;2.63;;
4309;SDS011;2168;53.576;9.980;2022-08-20T11:03:29;6.20;;;3.30;;
4309;SDS011;2168;53.576;9.980;2022-08-20T11:05:55;10.20;;;3.30;;
4309;SDS011;2168;53.576;9.980;2022-08-20T11:08:20;8.30;;;3.70;;
4309;SDS011;2168;53.576;9.980;2022-08-20T11:10:45;12.40;;;4.33;;
4309;SDS011;2168;53.576;9.980;2022-08-20T11:13:11;8.10;;;2.93;;
4309;SDS011;2168;53.576;9.980;2022-08-20T11:15:38;12.03;;;4.43;;
4309;SDS011;2168;53.576;9.980;2022-08-20T11:18:04;6.40;;;4.00;;
4309;SDS011;2168;53.576;9.980;2022-08-20T11:20:29;5.17;;;2.63;;
4309;SDS011;2168;53.576;9.980;2022-08-20T11:22:56;6.63;;;3.50;;
4309;SDS011;2168;53.576;9.980;2022-08-20T11:25:21;7.90;;;3.17;;
4309;SDS011;2168;53.576;9.980;2022-08-20T11:27:47;9.03;;;3.50;;
4309;SDS011;2168;53.576;9.980;2022-08-20T11:30:20;6.77;;;2.93;;
4309;SDS011;2168;53.576;9.980;2022-08-20T11:32:46;6.83;;;4.07;;
4309;SDS011;2168;53.576;9.980;2022-08-20T11:35:11;9.67;;;3.00;;
4309;SDS011;2168;53.576;9.980;2022-08-20T11:37:37;9.27;;;5.23;;
4309;SDS011;2168;53.576;9.980;2022-08-20T11:40:03;8.83;;;3.47;;
4309;SDS011;2168;53.576;9.980;2022-08-20T11:42:29;9.10;;;3.93;;
4309;SDS011;2168;53.576;9.980;2022-08-20T11:44:54;7.70;;;2.93;;
4309;SDS011;2168;53.576;9.980;2022-08-20T11:47:21;7.60;;;3.30;;
4309;SDS011;2168;53.576;9.980;2022-08-20T11:49:46;8.60;;;2.63;;
4309;SDS011;2168;53.576;9.980;2022-08-20T11:52:11;6.57;;;2.40;;
4309;SDS011;2168;53.576;9.980;2022-08-20T11:54:37;9.83;;;2.43;;
4309;SDS011;2168;53.576;9.980;2022-08-20T11:57:06;8.70;;;3.10;;
4309;SDS011;2168;53.576;9.980;2022-08-20T11:59:31;5.17;;;2.47;;
4309;SDS011;2168;53.576;9.980;2022-08-20T12:01:56;9.47;;;2.80;;
4309;SDS011;2168;53.576;9.980;2022-08-20T12:04:22;15.40;;;3.93;;
4309;SDS011;2168;53.576;9.980;2022-08-20T12:06:47;13.60;;;3.67;;
4309;SDS011;2168;53.576;9.980;2022-08-20T12:09:13;10.93;;;3.27;;
4309;SDS011;2168;53.576;9.980;2022-08-20T12:11:38;11.67;;;3.73;;
4309;SDS011;2168;53.576;9.980;2022-08-20T12:14:03;7.80;;;3.23;;
4309;SDS011;2168;53.576;9.980;2022-08-20T12:16:29;8.87;;;3.50;;
4309;SDS011;2168;53.576;9.980;2022-08-20T12:18:54;7.43;;;2.20;;
4309;SDS011;2168;53.576;9.980;2022-08-20T12:21:19;7.17;;;2.63;;
4309;SDS011;2168;53.576;9.980;2022-08-20T12:23:44;5.03;;;3.00;;
4309;SDS011;2168;53.576;9.980;2022-08-20T12:26:10;4.57;;;2.33;;
4309;SDS011;2168;53.576;9.980;2022-08-20T12:28:35;6.93;;;2.80;;
4309;SDS011;2168;53.576;9.980;2022-08-20T12:31:01;6.20;;;2.80;;
4309;SDS011;2168;53.576;9.980;2022-08-20T12:33:26;7.40;;;3.10;;
4309;SDS011;2168;53.576;9.980;2022-08-20T12:35:51;6.27;;;4.07;;
4309;SDS011;2168;53.576;9.980;2022-08-20T12:38:17;3.10;;;2.33;;
4309;SDS011;2168;53.576;9.980;2022-08-20T12:40:42;4.60;;;2.37;;
4309;SDS011;2168;53.576;9.980;2022-08-20T12:43:07;5.73;;;5.00;;
4309;SDS011;2168;53.576;9.980;2022-08-20T12:45:33;10.27;;;2.20;;
4309;SDS011;2168;53.576;9.980;2022-08-20T12:47:59;3.53;;;3.13;;
4309;SDS011;2168;53.576;9.980;2022-08-20T12:50:25;6.83;;;4.40;;
4309;SDS011;2168;53.576;9.980;2022-08-20T12:52:51;5.07;;;3.43;;
4309;SDS011;2168;53.576;9.980;2022-08-20T12:55:17;9.60;;;4.30;;
4309;SDS011;2168;53.576;9.980;2022-08-20T12:57:45;11.70;;;2.60;;
4309;SDS011;2168;53.576;9.980;2022-08-20T13:00:14;9.40;;;3.10;;
4309;SDS011;2168;53.576;9.980;2022-08-20T13:02:39;5.67;;;2.70;;
4309;SDS011;2168;53.576;9.980;2022-08-20T13:05:05;5.77;;;2.50;;
4309;SDS011;2168;53.576;9.980;2022-08-20T13:07:31;5.37;;;2.23;;
4309;SDS011;2168;53.576;9.980;2022-08-20T13:09:57;8.13;;;3.23;;
4309;SDS011;2168;53.576;9.980;2022-08-20T13:12:22;5.30;;;2.23;;
4309;SDS011;2168;53.576;9.980;2022-08-20T13:14:47;4.70;;;2.43;;
4309;SDS011;2168;53.576;9.980;2022-08-20T13:17:15;5.47;;;3.07;;
4309;SDS011;2168;53.576;9.980;2022-08-20T13:19:40;6.17;;;2.80;;
4309;SDS011;2168;53.576;9.980;2022-08-20T13:22:05;4.30;;;2.53;;
4309;SDS011;2168;53.576;9.980;2022-08-20T13:24:31;4.07;;;2.47;;
4309;SDS011;2168;53.576;9.980;2022-08-20T13:27:03;6.97;;;3.67;;
4309;SDS011;2168;53.576;9.980;2022-08-20T13:29:29;5.73;;;3.30;;
4309;SDS011;2168;53.576;9.980;2022-08-20T13:31:54;6.37;;;2.90;;
4309;SDS011;2168;53.576;9.980;2022-08-20T13:34:19;6.40;;;2.73;;
4309;SDS011;2168;53.576;9.980;2022-08-20T13:36:44;6.43;;;2.83;;
4309;SDS011;2168;53.576;9.980;2022-08-20T13:39:10;11.23;;;3.40;;
4309;SDS011;2168;53.576;9.980;2022-08-20T13:41:35;5.57;;;3.03;;
4309;SDS011;2168;53.576;9.980;2022-08-20T13:44:00;5.73;;;3.13;;
4309;SDS011;2168;53.576;9.980;2022-08-20T13:46:25;4.57;;;2.70;;
4309;SDS011;2168;53.576;9.980;2022-08-20T13:48:51;6.80;;;4.00;;
4309;SDS011;2168;53.576;9.980;2022-08-20T13:51:16;9.20;;;2.97;;
4309;SDS011;2168;53.576;9.980;2022-08-20T13:53:41;6.07;;;2.77;;
4309;SDS011;2168;53.576;9.980;2022-08-20T13:56:06;8.93;;;5.13;;
4309;SDS011;2168;53.576;9.980;2022-08-20T13:58:32;4.57;;;2.83;;
4309;SDS011;2168;53.576;9.980;2022-08-20T14:00:57;7.67;;;5.60;;
4309;SDS011;2168;53.576;9.980;2022-08-20T14:03:22;4.63;;;2.73;;
4309;SDS011;2168;53.576;9.980;2022-08-20T14:05:47;11.13;;;3.83;;
4309;SDS011;2168;53.576;9.980;2022-08-20T14:08:15;5.73;;;3.60;;
4309;SDS011;2168;53.576;9.980;2022-08-20T14:10:41;8.50;;;3.40;;
4309;SDS011;2168;53.576;9.980;2022-08-20T14:13:06;3.63;;;2.80;;
4309;SDS011;2168;53.576;9.980;2022-08-20T14:15:32;6.90;;;3.70;;
4309;SDS011;2168;53.576;9.980;2022-08-20T14:17:58;9.30;;;3.10;;
4309;SDS011;2168;53.576;9.980;2022-08-20T14:20:25;5.27;;;2.80;;
4309;SDS011;2168;53.576;9.980;2022-08-20T14:22:50;7.60;;;3.37;;
4309;SDS011;2168;53.576;9.980;2022-08-20T14:25:16;7.17;;;3.20;;
4309;SDS011;2168;53.576;9.980;2022-08-20T14:27:42;4.07;;;2.73;;
4309;SDS011;2168;53.576;9.980;2022-08-20T14:30:09;5.93;;;2.30;;
4309;SDS011;2168;53.576;9.980;2022-08-20T14:32:34;6.90;;;2.90;;
4309;SDS011;2168;53.576;9.980;2022-08-20T14:35:00;4.60;;;3.13;;
4309;SDS011;2168;53.576;9.980;2022-08-20T14:37:29;7.97;;;3.43;;
4309;SDS011;2168;53.576;9.980;2022-08-20T14:39:56;9.07;;;8.20;;
4309;SDS011;2168;53.576;9.980;2022-08-20T14:42:22;6.00;;;3.70;;
4309;SDS011;2168;53.576;9.980;2022-08-20T14:44:47;4.40;;;2.80;;
4309;SDS011;2168;53.576;9.980;2022-08-20T14:49:41;4.30;;;3.00;;
4309;SDS011;2168;53.576;9.980;2022-08-20T14:52:07;3.43;;;2.67;;
4309;SDS011;2168;53.576;9.980;2022-08-20T14:54:33;4.43;;;2.40;;
4309;SDS011;2168;53.576;9.980;2022-08-20T14:56:58;3.43;;;3.13;;
4309;SDS011;2168;53.576;9.980;2022-08-20T14:59:24;4.70;;;3.50;;
4309;SDS011;2168;53.576;9.980;2022-08-20T15:01:49;7.37;;;4.80;;
4309;SDS011;2168;53.576;9.980;2022-08-20T15:04:16;5.60;;;3.50;;
4309;SDS011;2168;53.576;9.980;2022-08-20T15:06:43;7.77;;;7.00;;
4309;SDS011;2168;53.576;9.980;2022-08-20T15:09:08;4.90;;;3.00;;
4309;SDS011;2168;53.576;9.980;2022-08-20T15:11:35;3.50;;;2.93;;
4309;SDS011;2168;53.576;9.980;2022-08-20T15:14:04;5.93;;;2.23;;
4309;SDS011;2168;53.576;9.980;2022-08-20T15:16:30;5.57;;;2.60;;
4309;SDS011;2168;53.576;9.980;2022-08-20T15:18:55;6.20;;;2.63;;